sensor_id;sensor_type;location;lat;lon;timestamp;P1;durP1;ratioP1;P2;durP2;ratioP2
20042;SDS011;10182;52.896;6.496;2023-05-07T00:00:59;11.93;;;10.67;;
20042;SDS011;10182;52.896;6.496;2023-05-07T00:06:02;12.33;;;10.90;;
20042;SDS011;10182;52.896;6.496;2023-05-07T00:11:04;11.23;;;9.93;;
20042;SDS011;10182;52.896;6.496;2023-05-07T00:16:05;12.77;;;11.43;;
20042;SDS011;10182;52.896;6.496;2023-05-07T00:21:09;15.53;;;13.07;;
20042;SDS011;10182;52.896;6.496;2023-05-07T00:26:10;14.50;;;12.57;;
20042;SDS011;10182;52.896;6.496;2023-05-07T00:31:12;18.30;;;12.83;;
20042;SDS011;10182;52.896;6.496;2023-05-07T00:36:15;15.10;;;13.57;;
20042;SDS011;10182;52.896;6.496;2023-05-07T00:41:17;15.27;;;13.67;;
20042;SDS011;10182;52.896;6.496;2023-05-07T00:46:18;16.50;;;14.87;;
20042;SDS011;10182;52.896;6.496;2023-05-07T00:51:23;18.33;;;15.60;;
20042;SDS011;10182;52.896;6.496;2023-05-07T00:56:27;19.83;;;17.47;;
20042;SDS011;10182;52.896;6.496;2023-05-07T01:01:29;19.10;;;16.67;;
20042;SDS011;10182;52.896;6.496;2023-05-07T01:06:32;19.37;;;17.00;;
20042;SDS011;10182;52.896;6.496;2023-05-07T01:11:34;21.50;;;18.70;;
20042;SDS011;10182;52.896;6.496;2023-05-07T01:16:36;20.43;;;18.17;;
20042;SDS011;10182;52.896;6.496;2023-05-07T01:21:39;23.97;;;21.00;;
20042;SDS011;10182;52.896;6.496;2023-05-07T01:26:47;24.40;;;21.80;;
20042;SDS011;10182;52.896;6.496;2023-05-07T01:31:49;23.70;;;20.57;;
20042;SDS011;10182;52.896;6.496;2023-05-07T01:36:53;23.13;;;20.73;;
20042;SDS011;10182;52.896;6.496;2023-05-07T01:41:57;23.73;;;21.17;;
20042;SDS011;10182;52.896;6.496;2023-05-07T01:47:01;25.00;;;22.17;;
20042;SDS011;10182;52.896;6.496;2023-05-07T01:52:03;26.93;;;22.20;;
20042;SDS011;10182;52.896;6.496;2023-05-07T01:57:06;29.17;;;24.33;;
20042;SDS011;10182;52.896;6.496;2023-05-07T02:02:08;27.77;;;23.53;;
20042;SDS011;10182;52.896;6.496;2023-05-07T02:07:10;24.73;;;21.97;;
20042;SDS011;10182;52.896;6.496;2023-05-07T02:12:13;30.83;;;24.47;;
20042;SDS011;10182;52.896;6.496;2023-05-07T02:17:14;28.23;;;24.10;;
20042;SDS011;10182;52.896;6.496;2023-05-07T02:22:18;28.00;;;24.40;;
20042;SDS011;10182;52.896;6.496;2023-05-07T02:27:21;29.20;;;24.57;;
20042;SDS011;10182;52.896;6.496;2023-05-07T02:32:23;28.27;;;25.17;;
20042;SDS011;10182;52.896;6.496;2023-05-07T02:37:24;26.90;;;24.00;;
20042;SDS011;10182;52.896;6.496;2023-05-07T02:42:27;30.07;;;25.30;;
20042;SDS011;10182;52.896;6.496;2023-05-07T02:47:29;32.17;;;25.70;;
20042;SDS011;10182;52.896;6.496;2023-05-07T02:52:31;30.33;;;25.87;;
20042;SDS011;10182;52.896;6.496;2023-05-07T02:57:34;34.73;;;28.40;;
20042;SDS011;10182;52.896;6.496;2023-05-07T03:02:35;31.70;;;26.70;;
20042;SDS011;10182;52.896;6.496;2023-05-07T03:07:37;34.50;;;28.40;;
20042;SDS011;10182;52.896;6.496;2023-05-07T03:12:40;37.20;;;29.83;;
20042;SDS011;10182;52.896;6.496;2023-05-07T03:17:42;34.57;;;29.23;;
20042;SDS011;10182;52.896;6.496;2023-05-07T03:22:44;35.47;;;28.63;;
20042;SDS011;10182;52.896;6.496;2023-05-07T03:27:47;38.23;;;32.77;;
20042;SDS011;10182;52.896;6.496;2023-05-07T03:32:48;37.93;;;31.73;;
20042;SDS011;10182;52.896;6.496;2023-05-07T03:37:50;39.33;;;31.53;;
20042;SDS011;10182;52.896;6.496;2023-05-07T03:42:53;42.43;;;33.57;;
20042;SDS011;10182;52.896;6.496;2023-05-07T03:47:55;43.13;;;33.73;;
20042;SDS011;10182;52.896;6.496;2023-05-07T03:52:56;39.07;;;30.77;;
20042;SDS011;10182;52.896;6.496;2023-05-07T03:57:59;42.73;;;34.17;;
20042;SDS011;10182;52.896;6.496;2023-05-07T04:03:01;42.27;;;33.80;;
20042;SDS011;10182;52.896;6.496;2023-05-07T04:08:04;43.83;;;35.23;;
20042;SDS011;10182;52.896;6.496;2023-05-07T04:13:07;46.87;;;35.77;;
20042;SDS011;10182;52.896;6.496;2023-05-07T04:18:09;43.80;;;35.40;;
20042;SDS011;10182;52.896;6.496;2023-05-07T04:23:11;46.10;;;35.70;;
20042;SDS011;10182;52.896;6.496;2023-05-07T04:28:14;44.27;;;33.90;;
20042;SDS011;10182;52.896;6.496;2023-05-07T04:33:16;49.27;;;37.10;;
20042;SDS011;10182;52.896;6.496;2023-05-07T04:38:18;45.00;;;37.00;;
20042;SDS011;10182;52.896;6.496;2023-05-07T04:43:21;41.47;;;34.70;;
20042;SDS011;10182;52.896;6.496;2023-05-07T04:48:23;46.90;;;35.47;;
20042;SDS011;10182;52.896;6.496;2023-05-07T04:53:25;44.13;;;34.50;;
20042;SDS011;10182;52.896;6.496;2023-05-07T04:58:28;41.13;;;32.60;;
20042;SDS011;10182;52.896;6.496;2023-05-07T05:03:31;38.90;;;32.07;;
20042;SDS011;10182;52.896;6.496;2023-05-07T05:08:33;40.97;;;32.83;;
20042;SDS011;10182;52.896;6.496;2023-05-07T05:13:37;35.17;;;30.10;;
20042;SDS011;10182;52.896;6.496;2023-05-07T05:18:39;33.70;;;28.43;;
20042;SDS011;10182;52.896;6.496;2023-05-07T05:23:40;34.30;;;29.67;;
20042;SDS011;10182;52.896;6.496;2023-05-07T05:28:43;34.50;;;28.57;;
20042;SDS011;10182;52.896;6.496;2023-05-07T05:33:46;38.10;;;31.10;;
20042;SDS011;10182;52.896;6.496;2023-05-07T05:38:47;33.83;;;28.50;;
20042;SDS011;10182;52.896;6.496;2023-05-07T05:43:50;35.50;;;28.87;;
20042;SDS011;10182;52.896;6.496;2023-05-07T05:48:52;31.57;;;27.50;;
20042;SDS011;10182;52.896;6.496;2023-05-07T05:53:53;36.37;;;28.97;;
20042;SDS011;10182;52.896;6.496;2023-05-07T05:58:57;31.87;;;28.47;;
20042;SDS011;10182;52.896;6.496;2023-05-07T06:03:58;29.77;;;26.47;;
20042;SDS011;10182;52.896;6.496;2023-05-07T06:09:00;32.40;;;27.70;;
20042;SDS011;10182;52.896;6.496;2023-05-07T06:14:03;30.13;;;26.50;;
20042;SDS011;10182;52.896;6.496;2023-05-07T06:19:05;31.50;;;27.10;;
20042;SDS011;10182;52.896;6.496;2023-05-07T06:24:06;30.00;;;26.80;;
20042;SDS011;10182;52.896;6.496;2023-05-07T06:29:10;30.00;;;26.43;;
20042;SDS011;10182;52.896;6.496;2023-05-07T06:34:11;32.37;;;28.53;;
20042;SDS011;10182;52.896;6.496;2023-05-07T06:39:15;30.77;;;27.10;;
20042;SDS011;10182;52.896;6.496;2023-05-07T06:44:18;31.23;;;26.60;;
20042;SDS011;10182;52.896;6.496;2023-05-07T06:49:19;33.67;;;28.73;;
20042;SDS011;10182;52.896;6.496;2023-05-07T06:54:21;30.67;;;27.10;;
20042;SDS011;10182;52.896;6.496;2023-05-07T06:59:25;34.87;;;29.03;;
20042;SDS011;10182;52.896;6.496;2023-05-07T07:04:26;33.33;;;27.70;;
20042;SDS011;10182;52.896;6.496;2023-05-07T07:09:28;33.27;;;29.67;;
20042;SDS011;10182;52.896;6.496;2023-05-07T07:14:31;32.37;;;27.53;;
20042;SDS011;10182;52.896;6.496;2023-05-07T07:19:33;34.53;;;28.97;;
20042;SDS011;10182;52.896;6.496;2023-05-07T07:24:35;34.87;;;29.20;;
20042;SDS011;10182;52.896;6.496;2023-05-07T07:29:38;32.77;;;28.93;;
20042;SDS011;10182;52.896;6.496;2023-05-07T07:34:39;32.57;;;27.13;;
20042;SDS011;10182;52.896;6.496;2023-05-07T07:39:41;32.93;;;27.73;;
20042;SDS011;10182;52.896;6.496;2023-05-07T07:44:44;33.13;;;28.60;;
20042;SDS011;10182;52.896;6.496;2023-05-07T07:49:46;33.63;;;29.10;;
20042;SDS011;10182;52.896;6.496;2023-05-07T07:54:47;35.00;;;31.17;;
20042;SDS011;10182;52.896;6.496;2023-05-07T07:59:50;33.03;;;27.30;;
20042;SDS011;10182;52.896;6.496;2023-05-07T08:04:52;33.83;;;28.20;;
20042;SDS011;10182;52.896;6.496;2023-05-07T08:09:54;31.73;;;27.90;;
20042;SDS011;10182;52.896;6.496;2023-05-07T08:14:57;34.63;;;28.70;;
20042;SDS011;10182;52.896;6.496;2023-05-07T08:19:59;33.10;;;28.23;;
20042;SDS011;10182;52.896;6.496;2023-05-07T08:25:00;36.13;;;29.93;;
20042;SDS011;10182;52.896;6.496;2023-05-07T08:30:04;34.33;;;28.67;;
20042;SDS011;10182;52.896;6.496;2023-05-07T08:35:07;40.23;;;29.23;;
20042;SDS011;10182;52.896;6.496;2023-05-07T08:40:10;35.50;;;29.67;;
20042;SDS011;10182;52.896;6.496;2023-05-07T08:45:13;39.50;;;29.87;;
20042;SDS011;10182;52.896;6.496;2023-05-07T08:50:16;33.53;;;28.93;;
20042;SDS011;10182;52.896;6.496;2023-05-07T08:55:22;32.33;;;28.60;;
20042;SDS011;10182;52.896;6.496;2023-05-07T09:00:25;36.47;;;29.67;;
20042;SDS011;10182;52.896;6.496;2023-05-07T09:05:27;32.40;;;28.43;;
20042;SDS011;10182;52.896;6.496;2023-05-07T09:10:29;31.20;;;27.83;;
20042;SDS011;10182;52.896;6.496;2023-05-07T09:15:32;31.10;;;26.70;;
20042;SDS011;10182;52.896;6.496;2023-05-07T09:20:33;34.23;;;29.67;;
20042;SDS011;10182;52.896;6.496;2023-05-07T09:25:37;33.87;;;28.97;;
20042;SDS011;10182;52.896;6.496;2023-05-07T09:30:40;33.47;;;29.87;;
20042;SDS011;10182;52.896;6.496;2023-05-07T09:35:42;32.50;;;27.90;;
20042;SDS011;10182;52.896;6.496;2023-05-07T09:40:44;30.43;;;26.47;;
20042;SDS011;10182;52.896;6.496;2023-05-07T09:45:47;30.27;;;26.83;;
20042;SDS011;10182;52.896;6.496;2023-05-07T09:50:51;30.93;;;27.57;;
20042;SDS011;10182;52.896;6.496;2023-05-07T09:55:57;28.47;;;25.47;;
20042;SDS011;10182;52.896;6.496;2023-05-07T10:01:01;29.73;;;26.57;;
20042;SDS011;10182;52.896;6.496;2023-05-07T10:06:04;28.30;;;25.30;;
20042;SDS011;10182;52.896;6.496;2023-05-07T10:11:07;28.73;;;25.70;;
20042;SDS011;10182;52.896;6.496;2023-05-07T10:16:11;29.47;;;26.37;;
20042;SDS011;10182;52.896;6.496;2023-05-07T10:21:15;29.40;;;26.23;;
20042;SDS011;10182;52.896;6.496;2023-05-07T10:26:19;25.50;;;22.83;;
20042;SDS011;10182;52.896;6.496;2023-05-07T10:31:28;28.07;;;24.97;;
20042;SDS011;10182;52.896;6.496;2023-05-07T10:36:42;26.63;;;23.83;;
20042;SDS011;10182;52.896;6.496;2023-05-07T10:41:45;25.27;;;22.67;;
20042;SDS011;10182;52.896;6.496;2023-05-07T10:46:58;26.27;;;23.57;;
20042;SDS011;10182;52.896;6.496;2023-05-07T10:52:12;25.30;;;22.77;;
20042;SDS011;10182;52.896;6.496;2023-05-07T10:57:34;24.30;;;21.87;;
20042;SDS011;10182;52.896;6.496;2023-05-07T11:08:09;23.17;;;20.83;;
20042;SDS011;10182;52.896;6.496;2023-05-07T11:13:11;22.97;;;20.43;;
20042;SDS011;10182;52.896;6.496;2023-05-07T11:18:15;22.93;;;20.53;;
20042;SDS011;10182;52.896;6.496;2023-05-07T11:29:01;21.47;;;19.40;;
20042;SDS011;10182;52.896;6.496;2023-05-07T11:34:04;24.03;;;20.73;;
20042;SDS011;10182;52.896;6.496;2023-05-07T11:39:08;21.40;;;19.27;;
20042;SDS011;10182;52.896;6.496;2023-05-07T11:44:24;21.93;;;19.87;;
20042;SDS011;10182;52.896;6.496;2023-05-07T11:49:27;21.00;;;19.03;;
20042;SDS011;10182;52.896;6.496;2023-05-07T11:54:34;23.43;;;20.90;;
20042;SDS011;10182;52.896;6.496;2023-05-07T11:59:39;22.43;;;20.00;;
20042;SDS011;10182;52.896;6.496;2023-05-07T12:04:42;22.73;;;20.53;;
20042;SDS011;10182;52.896;6.496;2023-05-07T12:09:44;24.83;;;21.43;;
20042;SDS011;10182;52.896;6.496;2023-05-07T12:14:47;24.37;;;21.97;;
20042;SDS011;10182;52.896;6.496;2023-05-07T12:19:50;23.37;;;21.07;;
20042;SDS011;10182;52.896;6.496;2023-05-07T12:24:56;23.43;;;21.03;;
20042;SDS011;10182;52.896;6.496;2023-05-07T12:29:59;21.20;;;19.13;;
20042;SDS011;10182;52.896;6.496;2023-05-07T12:35:02;21.40;;;19.17;;
20042;SDS011;10182;52.896;6.496;2023-05-07T12:40:04;21.17;;;18.97;;
20042;SDS011;10182;52.896;6.496;2023-05-07T12:45:08;22.00;;;19.80;;
20042;SDS011;10182;52.896;6.496;2023-05-07T12:50:12;22.27;;;20.07;;
20042;SDS011;10182;52.896;6.496;2023-05-07T12:55:14;19.20;;;17.30;;
20042;SDS011;10182;52.896;6.496;2023-05-07T13:00:17;20.80;;;18.73;;
20042;SDS011;10182;52.896;6.496;2023-05-07T13:05:20;19.80;;;17.80;;
20042;SDS011;10182;52.896;6.496;2023-05-07T13:10:22;19.80;;;17.90;;
20042;SDS011;10182;52.896;6.496;2023-05-07T13:15:24;20.03;;;18.13;;
20042;SDS011;10182;52.896;6.496;2023-05-07T13:20:28;17.03;;;15.23;;
20042;SDS011;10182;52.896;6.496;2023-05-07T13:25:30;17.23;;;15.63;;
20042;SDS011;10182;52.896;6.496;2023-05-07T13:30:31;17.17;;;15.37;;
20042;SDS011;10182;52.896;6.496;2023-05-07T13:35:34;19.00;;;17.03;;
20042;SDS011;10182;52.896;6.496;2023-05-07T13:40:36;19.20;;;17.33;;
20042;SDS011;10182;52.896;6.496;2023-05-07T13:45:38;18.97;;;17.10;;
20042;SDS011;10182;52.896;6.496;2023-05-07T13:50:41;18.83;;;17.13;;
20042;SDS011;10182;52.896;6.496;2023-05-07T13:55:43;19.63;;;17.60;;
20042;SDS011;10182;52.896;6.496;2023-05-07T14:00:44;17.63;;;16.03;;
20042;SDS011;10182;52.896;6.496;2023-05-07T14:05:47;19.00;;;17.30;;
20042;SDS011;10182;52.896;6.496;2023-05-07T14:10:49;16.53;;;15.03;;
20042;SDS011;10182;52.896;6.496;2023-05-07T14:15:51;17.67;;;16.00;;
20042;SDS011;10182;52.896;6.496;2023-05-07T14:20:54;17.60;;;15.87;;
20042;SDS011;10182;52.896;6.496;2023-05-07T14:25:56;17.17;;;15.53;;
20042;SDS011;10182;52.896;6.496;2023-05-07T14:30:57;17.83;;;16.13;;
20042;SDS011;10182;52.896;6.496;2023-05-07T14:36:01;17.63;;;16.03;;
20042;SDS011;10182;52.896;6.496;2023-05-07T14:41:03;16.83;;;15.33;;
20042;SDS011;10182;52.896;6.496;2023-05-07T14:46:05;16.57;;;14.97;;
20042;SDS011;10182;52.896;6.496;2023-05-07T14:51:08;17.90;;;16.27;;
20042;SDS011;10182;52.896;6.496;2023-05-07T14:56:10;16.60;;;15.20;;
20042;SDS011;10182;52.896;6.496;2023-05-07T15:01:11;17.90;;;16.37;;
20042;SDS011;10182;52.896;6.496;2023-05-07T15:06:14;16.70;;;15.30;;
20042;SDS011;10182;52.896;6.496;2023-05-07T15:11:16;16.53;;;15.03;;
20042;SDS011;10182;52.896;6.496;2023-05-07T15:16:18;14.63;;;13.33;;
20042;SDS011;10182;52.896;6.496;2023-05-07T15:21:21;15.17;;;13.77;;
20042;SDS011;10182;52.896;6.496;2023-05-07T15:26:23;15.97;;;14.47;;
20042;SDS011;10182;52.896;6.496;2023-05-07T15:31:25;16.30;;;14.90;;
20042;SDS011;10182;52.896;6.496;2023-05-07T15:36:28;16.03;;;14.63;;
20042;SDS011;10182;52.896;6.496;2023-05-07T15:41:30;14.90;;;13.50;;
20042;SDS011;10182;52.896;6.496;2023-05-07T15:46:32;15.27;;;13.77;;
20042;SDS011;10182;52.896;6.496;2023-05-07T15:51:35;14.23;;;12.83;;
20042;SDS011;10182;52.896;6.496;2023-05-07T15:56:37;15.27;;;13.87;;
20042;SDS011;10182;52.896;6.496;2023-05-07T16:01:38;13.53;;;12.23;;
20042;SDS011;10182;52.896;6.496;2023-05-07T16:06:43;13.43;;;12.23;;
20042;SDS011;10182;52.896;6.496;2023-05-07T16:11:46;13.67;;;12.43;;
20042;SDS011;10182;52.896;6.496;2023-05-07T16:16:48;13.23;;;12.03;;
20042;SDS011;10182;52.896;6.496;2023-05-07T16:21:51;14.23;;;12.47;;
20042;SDS011;10182;52.896;6.496;2023-05-07T16:26:53;14.33;;;12.97;;
20042;SDS011;10182;52.896;6.496;2023-05-07T16:31:56;14.00;;;12.73;;
20042;SDS011;10182;52.896;6.496;2023-05-07T16:36:59;14.30;;;12.90;;
20042;SDS011;10182;52.896;6.496;2023-05-07T16:42:00;13.30;;;12.10;;
20042;SDS011;10182;52.896;6.496;2023-05-07T16:47:02;14.53;;;13.00;;
20042;SDS011;10182;52.896;6.496;2023-05-07T16:52:05;14.83;;;13.43;;
20042;SDS011;10182;52.896;6.496;2023-05-07T16:57:07;15.97;;;14.63;;
20042;SDS011;10182;52.896;6.496;2023-05-07T17:02:09;15.77;;;14.40;;
20042;SDS011;10182;52.896;6.496;2023-05-07T17:07:12;18.77;;;16.90;;
20042;SDS011;10182;52.896;6.496;2023-05-07T17:12:15;19.57;;;17.83;;
20042;SDS011;10182;52.896;6.496;2023-05-07T17:17:17;17.73;;;16.10;;
20042;SDS011;10182;52.896;6.496;2023-05-07T17:22:20;17.50;;;16.00;;
20042;SDS011;10182;52.896;6.496;2023-05-07T17:27:22;17.80;;;16.20;;
20042;SDS011;10182;52.896;6.496;2023-05-07T17:32:23;17.30;;;15.80;;
20042;SDS011;10182;52.896;6.496;2023-05-07T17:37:26;17.27;;;15.77;;
20042;SDS011;10182;52.896;6.496;2023-05-07T17:42:28;18.10;;;16.00;;
20042;SDS011;10182;52.896;6.496;2023-05-07T17:47:31;16.43;;;15.03;;
20042;SDS011;10182;52.896;6.496;2023-05-07T17:52:34;15.27;;;13.83;;
20042;SDS011;10182;52.896;6.496;2023-05-07T17:57:35;16.23;;;14.57;;
20042;SDS011;10182;52.896;6.496;2023-05-07T18:02:37;18.30;;;16.70;;
20042;SDS011;10182;52.896;6.496;2023-05-07T18:07:41;19.03;;;17.07;;
20042;SDS011;10182;52.896;6.496;2023-05-07T18:12:43;16.40;;;14.90;;
20042;SDS011;10182;52.896;6.496;2023-05-07T18:17:45;17.73;;;15.93;;
20042;SDS011;10182;52.896;6.496;2023-05-07T18:22:48;18.50;;;16.67;;
20042;SDS011;10182;52.896;6.496;2023-05-07T18:27:50;18.23;;;16.63;;
20042;SDS011;10182;52.896;6.496;2023-05-07T18:32:52;17.70;;;16.17;;
20042;SDS011;10182;52.896;6.496;2023-05-07T18:37:55;17.77;;;16.17;;
20042;SDS011;10182;52.896;6.496;2023-05-07T18:42:56;16.90;;;15.50;;
20042;SDS011;10182;52.896;6.496;2023-05-07T18:47:59;20.10;;;18.00;;
20042;SDS011;10182;52.896;6.496;2023-05-07T18:53:05;18.67;;;16.50;;
20042;SDS011;10182;52.896;6.496;2023-05-07T18:58:06;17.73;;;16.13;;
20042;SDS011;10182;52.896;6.496;2023-05-07T19:03:08;17.17;;;15.67;;
20042;SDS011;10182;52.896;6.496;2023-05-07T19:08:11;19.33;;;17.43;;
20042;SDS011;10182;52.896;6.496;2023-05-07T19:13:13;18.13;;;16.43;;
20042;SDS011;10182;52.896;6.496;2023-05-07T19:18:14;19.63;;;17.73;;
20042;SDS011;10182;52.896;6.496;2023-05-07T19:23:17;20.57;;;18.60;;
20042;SDS011;10182;52.896;6.496;2023-05-07T19:28:19;17.63;;;16.13;;
20042;SDS011;10182;52.896;6.496;2023-05-07T19:33:22;19.00;;;17.17;;
20042;SDS011;10182;52.896;6.496;2023-05-07T19:38:29;22.40;;;20.50;;
20042;SDS011;10182;52.896;6.496;2023-05-07T19:43:32;18.47;;;16.87;;
20042;SDS011;10182;52.896;6.496;2023-05-07T19:48:37;18.27;;;16.57;;
20042;SDS011;10182;52.896;6.496;2023-05-07T19:53:40;18.93;;;17.13;;
20042;SDS011;10182;52.896;6.496;2023-05-07T19:58:43;18.00;;;16.40;;
20042;SDS011;10182;52.896;6.496;2023-05-07T20:03:45;17.77;;;16.07;;
20042;SDS011;10182;52.896;6.496;2023-05-07T20:08:48;19.60;;;17.80;;
20042;SDS011;10182;52.896;6.496;2023-05-07T20:13:50;17.27;;;15.77;;
20042;SDS011;10182;52.896;6.496;2023-05-07T20:18:52;17.03;;;15.40;;
20042;SDS011;10182;52.896;6.496;2023-05-07T20:23:55;16.90;;;15.40;;
20042;SDS011;10182;52.896;6.496;2023-05-07T20:28:57;16.10;;;14.60;;
20042;SDS011;10182;52.896;6.496;2023-05-07T20:33:59;15.17;;;13.63;;
20042;SDS011;10182;52.896;6.496;2023-05-07T20:39:02;15.13;;;13.77;;
20042;SDS011;10182;52.896;6.496;2023-05-07T20:44:04;13.57;;;12.27;;
20042;SDS011;10182;52.896;6.496;2023-05-07T20:49:06;15.63;;;14.23;;
20042;SDS011;10182;52.896;6.496;2023-05-07T20:54:09;15.17;;;13.70;;
20042;SDS011;10182;52.896;6.496;2023-05-07T20:59:12;14.93;;;13.53;;
20042;SDS011;10182;52.896;6.496;2023-05-07T21:04:14;15.37;;;14.07;;
20042;SDS011;10182;52.896;6.496;2023-05-07T21:09:17;14.50;;;13.30;;
20042;SDS011;10182;52.896;6.496;2023-05-07T21:14:18;14.90;;;13.47;;
20042;SDS011;10182;52.896;6.496;2023-05-07T21:19:20;15.40;;;14.00;;
20042;SDS011;10182;52.896;6.496;2023-05-07T21:24:23;15.37;;;13.97;;
20042;SDS011;10182;52.896;6.496;2023-05-07T21:29:25;14.90;;;13.40;;
20042;SDS011;10182;52.896;6.496;2023-05-07T21:34:27;15.50;;;13.93;;
20042;SDS011;10182;52.896;6.496;2023-05-07T21:39:30;16.07;;;14.57;;
20042;SDS011;10182;52.896;6.496;2023-05-07T21:44:32;16.37;;;14.47;;
20042;SDS011;10182;52.896;6.496;2023-05-07T21:49:33;16.17;;;14.50;;
20042;SDS011;10182;52.896;6.496;2023-05-07T21:54:36;15.47;;;14.07;;
20042;SDS011;10182;52.896;6.496;2023-05-07T21:59:38;15.50;;;14.10;;
20042;SDS011;10182;52.896;6.496;2023-05-07T22:04:40;17.80;;;13.70;;
20042;SDS011;10182;52.896;6.496;2023-05-07T22:09:43;15.03;;;13.73;;
20042;SDS011;10182;52.896;6.496;2023-05-07T22:14:45;14.40;;;13.07;;
20042;SDS011;10182;52.896;6.496;2023-05-07T22:19:47;14.17;;;12.80;;
20042;SDS011;10182;52.896;6.496;2023-05-07T22:24:50;15.40;;;14.00;;
20042;SDS011;10182;52.896;6.496;2023-05-07T22:29:52;14.00;;;12.70;;
20042;SDS011;10182;52.896;6.496;2023-05-07T22:34:53;14.13;;;12.83;;
20042;SDS011;10182;52.896;6.496;2023-05-07T22:39:56;14.10;;;12.70;;
20042;SDS011;10182;52.896;6.496;2023-05-07T22:44:58;14.13;;;12.93;;
20042;SDS011;10182;52.896;6.496;2023-05-07T22:50:00;14.33;;;12.93;;
20042;SDS011;10182;52.896;6.496;2023-05-07T22:55:03;14.20;;;12.87;;
20042;SDS011;10182;52.896;6.496;2023-05-07T23:00:06;14.23;;;12.73;;
20042;SDS011;10182;52.896;6.496;2023-05-07T23:05:08;16.67;;;13.80;;
20042;SDS011;10182;52.896;6.496;2023-05-07T23:10:11;14.07;;;12.77;;
20042;SDS011;10182;52.896;6.496;2023-05-07T23:15:13;15.70;;;13.90;;
20042;SDS011;10182;52.896;6.496;2023-05-07T23:20:15;15.50;;;14.00;;
20042;SDS011;10182;52.896;6.496;2023-05-07T23:25:19;15.73;;;14.23;;
20042;SDS011;10182;52.896;6.496;2023-05-07T23:30:20;16.10;;;14.47;;
20042;SDS011;10182;52.896;6.496;2023-05-07T23:35:22;16.00;;;14.50;;
20042;SDS011;10182;52.896;6.496;2023-05-07T23:40:25;16.67;;;14.87;;
20042;SDS011;10182;52.896;6.496;2023-05-07T23:45:27;17.77;;;14.53;;
20042;SDS011;10182;52.896;6.496;2023-05-07T23:50:29;16.27;;;14.70;;
20042;SDS011;10182;52.896;6.496;2023-05-07T23:55:32;16.10;;;14.60;;
